Time;durP1;ratioP1;P1;durP2;ratioP2;P2;SDS_P1;SDS_P2;PMS_P1;PMS_P2;Temp;Humidity;BMP_temperature;BMP_pressure;BME280_temperature;BME280_humidity;BME280_pressure;Samples;Min_cycle;Max_cycle;Signal;HPM_P1;HPM_P2
2023/08/06 00:03:39;;;;;;;;;;;;;;;15.40;100.00;100372.97;10462850;28;19924;-64
2023/08/06 00:08:42;;;;;;;;;;;;;;;15.35;100.00;100374.34;10462545;28;19929;-64
2023/08/06 00:13:44;;;;;;;;;;;;;;;15.42;100.00;100375.50;10462433;28;20400;-64
2023/08/06 00:18:47;;;;;;;;;;;;;;;15.27;100.00;100372.34;10462253;28;19931;-64
2023/08/06 00:23:49;;;;;;;;;;;;;;;15.27;100.00;100360.97;10462212;28;19933;-64
2023/08/06 00:28:51;;;;;;;;;;;;;;;15.38;100.00;100366.16;10443973;28;19925;-64
2023/08/06 00:33:53;;;;;;;;;;;;;;;15.44;100.00;100363.00;10461570;28;19935;-64
2023/08/06 00:38:56;;;;;;;;;;;;;;;15.49;100.00;100358.16;10461618;28;19932;-64
2023/08/06 00:43:58;;;;;;;;;;;;;;;15.50;100.00;100362.50;10461035;28;19925;-64
2023/08/06 00:49:00;;;;;;;;;;;;;;;15.42;100.00;100352.56;10461158;28;19925;-64
2023/08/06 00:54:02;;;;;;;;;;;;;;;15.59;100.00;100358.22;10460857;28;19940;-64
2023/08/06 00:59:05;;;;;;;;;;;;;;;15.49;100.00;100365.25;10443170;28;19925;-64
2023/08/06 01:04:07;;;;;;;;;;;;;;;15.61;100.00;100362.38;10442914;28;19935;-64
2023/08/06 01:09:29;;;;;;;;;;;;;;;15.55;100.00;100359.44;10442490;28;20368;-64
2023/08/06 01:14:38;;;;;;;;;;;;;;;15.37;100.00;100357.41;10410063;28;19931;-63
2023/08/06 01:19:40;;;;;;;;;;;;;;;15.44;100.00;100354.25;10442324;28;19925;-63
2023/08/06 01:24:43;;;;;;;;;;;;;;;15.33;100.00;100349.88;10459634;28;19931;-64
2023/08/06 01:29:47;;;;;;;;;;;;;;;15.50;100.00;100353.72;10459099;28;20271;-64
2023/08/06 01:34:49;;;;;;;;;;;;;;;15.49;100.00;100346.78;10458832;28;19925;-64
2023/08/06 01:39:51;;;;;;;;;;;;;;;15.48;100.00;100351.19;10441239;28;20303;-64
2023/08/06 01:44:53;;;;;;;;;;;;;;;15.40;100.00;100345.78;10458749;28;19936;-64
2023/08/06 01:49:56;;;;;;;;;;;;;;;15.51;100.00;100339.56;10458642;28;19947;-64
2023/08/06 01:54:58;;;;;;;;;;;;;;;15.60;100.00;100334.34;10458393;28;19931;-64
2023/08/06 02:00:00;;;;;;;;;;;;;;;15.48;100.00;100345.94;10440712;28;20398;-64
2023/08/06 02:05:03;;;;;;;;;;;;;;;15.48;100.00;100343.28;10458003;28;19953;-63
2023/08/06 02:10:05;;;;;;;;;;;;;;;15.54;100.00;100342.78;10457871;28;19956;-64
2023/08/06 02:15:08;;;;;;;;;;;;;;;15.57;100.00;100337.25;10457629;28;19960;-64
2023/08/06 02:20:10;;;;;;;;;;;;;;;15.72;100.00;100336.91;10440145;28;19931;-63
2023/08/06 02:25:13;;;;;;;;;;;;;;;15.64;100.00;100340.19;10457370;28;20394;-64
2023/08/06 02:30:16;;;;;;;;;;;;;;;15.57;100.00;100328.50;10456932;28;19925;-64
2023/08/06 02:35:18;;;;;;;;;;;;;;;15.50;100.00;100330.81;10457114;28;19935;-64
2023/08/06 02:40:20;;;;;;;;;;;;;;;15.57;100.00;100333.78;10456980;28;20019;-64
2023/08/06 02:45:23;;;;;;;;;;;;;;;15.57;100.00;100321.41;10456137;28;19932;-64
2023/08/06 02:50:25;;;;;;;;;;;;;;;15.48;100.00;100324.00;10456895;28;19925;-64
2023/08/06 02:55:27;;;;;;;;;;;;;;;15.58;100.00;100312.53;10438747;28;20395;-64
2023/08/06 03:00:30;;;;;;;;;;;;;;;15.47;100.00;100315.25;10456669;28;19931;-64
2023/08/06 03:05:32;;;;;;;;;;;;;;;15.54;100.00;100319.03;10456434;28;19931;-64
2023/08/06 03:10:34;;;;;;;;;;;;;;;15.61;100.00;100316.69;10456439;28;20390;-64
2023/08/06 03:15:37;;;;;;;;;;;;;;;15.67;100.00;100310.03;10456204;28;19936;-64
2023/08/06 03:20:39;;;;;;;;;;;;;;;15.58;100.00;100306.41;10456480;28;19924;-64
2023/08/06 03:25:41;;;;;;;;;;;;;;;15.48;100.00;100303.72;10455919;28;20346;-64
2023/08/06 03:30:43;;;;;;;;;;;;;;;15.64;100.00;100307.69;10455746;28;19951;-64
2023/08/06 03:35:46;;;;;;;;;;;;;;;15.50;100.00;100308.88;10455831;28;19998;-64
2023/08/06 03:40:48;;;;;;;;;;;;;;;15.50;100.00;100304.44;10455627;28;19929;-64
2023/08/06 03:45:50;;;;;;;;;;;;;;;15.51;100.00;100307.91;10455559;28;19948;-64
2023/08/06 03:50:52;;;;;;;;;;;;;;;15.61;100.00;100300.88;10438050;28;19925;-64
2023/08/06 03:55:59;;;;;;;;;;;;;;;15.73;100.00;100296.34;10457487;28;19925;-65
2023/08/06 04:01:02;;;;;;;;;;;;;;;15.64;100.00;100295.34;10446236;28;19924;-64
2023/08/06 04:06:04;;;;;;;;;;;;;;;15.67;100.00;100300.34;10462697;28;20438;-64
2023/08/06 04:11:07;;;;;;;;;;;;;;;15.63;100.00;100303.38;10444957;28;19925;-64
2023/08/06 04:16:09;;;;;;;;;;;;;;;15.71;100.00;100304.38;10444921;28;19931;-64
2023/08/06 04:21:11;;;;;;;;;;;;;;;15.77;100.00;100298.59;10462120;28;20303;-64
2023/08/06 04:26:14;;;;;;;;;;;;;;;15.89;100.00;100314.34;10461885;28;20372;-64
2023/08/06 04:31:16;;;;;;;;;;;;;;;15.86;100.00;100317.25;10461658;28;19925;-64
2023/08/06 04:36:18;;;;;;;;;;;;;;;15.75;100.00;100310.22;10461515;28;19929;-64
2023/08/06 04:41:21;;;;;;;;;;;;;;;15.89;100.00;100315.19;10461362;28;19936;-64
2023/08/06 04:46:23;;;;;;;;;;;;;;;15.86;100.00;100326.00;10461307;28;19932;-64
2023/08/06 04:51:25;;;;;;;;;;;;;;;15.96;100.00;100326.03;10461041;28;19931;-64
2023/08/06 04:56:28;;;;;;;;;;;;;;;16.00;100.00;100321.31;10460745;28;20383;-64
2023/08/06 05:01:30;;;;;;;;;;;;;;;16.13;100.00;100314.81;10460838;28;19925;-64
2023/08/06 05:06:32;;;;;;;;;;;;;;;16.23;100.00;100322.75;10459550;28;19932;-64
2023/08/06 05:11:34;;;;;;;;;;;;;;;16.18;100.00;100318.88;10442698;28;19932;-64
2023/08/06 05:16:37;;;;;;;;;;;;;;;16.16;100.00;100335.66;10442213;28;20331;-64
2023/08/06 05:21:39;;;;;;;;;;;;;;;16.24;100.00;100332.38;10460127;28;19947;-64
2023/08/06 05:26:41;;;;;;;;;;;;;;;16.41;100.00;100330.00;10441740;28;20272;-64
2023/08/06 05:31:43;;;;;;;;;;;;;;;16.42;100.00;100344.91;10459540;28;19931;-64
2023/08/06 05:36:46;;;;;;;;;;;;;;;16.32;100.00;100355.44;10459173;28;19994;-64
2023/08/06 05:41:48;;;;;;;;;;;;;;;16.35;100.00;100353.34;10441318;28;19929;-64
2023/08/06 05:46:51;;;;;;;;;;;;;;;16.58;100.00;100352.31;10459010;28;19925;-64
2023/08/06 05:51:53;;;;;;;;;;;;;;;15.93;100.00;100358.81;10458584;28;20003;-64
2023/08/06 05:56:56;;;;;;;;;;;;;;;16.48;100.00;100354.94;10458376;28;19931;-64
2023/08/06 06:01:58;;;;;;;;;;;;;;;16.68;100.00;100366.34;10458334;28;20403;-64
2023/08/06 06:07:00;;;;;;;;;;;;;;;16.86;100.00;100362.06;10458019;28;19931;-64
2023/08/06 06:12:03;;;;;;;;;;;;;;;16.99;100.00;100367.06;10457839;28;20394;-64
2023/08/06 06:17:05;;;;;;;;;;;;;;;16.61;100.00;100384.56;10457655;28;19929;-64
2023/08/06 06:22:07;;;;;;;;;;;;;;;16.78;100.00;100388.34;10457661;28;19925;-64
2023/08/06 06:27:10;;;;;;;;;;;;;;;16.69;100.00;100399.72;10439652;28;19925;-65
2023/08/06 06:32:12;;;;;;;;;;;;;;;16.70;100.00;100401.41;10457063;28;20296;-64
2023/08/06 06:37:14;;;;;;;;;;;;;;;16.77;100.00;100414.91;10457308;28;19925;-64
2023/08/06 06:42:16;;;;;;;;;;;;;;;16.81;100.00;100408.34;10439429;28;19932;-64
2023/08/06 06:47:19;;;;;;;;;;;;;;;16.93;100.00;100417.03;10456852;28;19951;-64
2023/08/06 06:52:21;;;;;;;;;;;;;;;16.72;100.00;100424.06;10456862;28;19932;-64
2023/08/06 06:57:23;;;;;;;;;;;;;;;17.02;100.00;100416.22;10456765;28;19924;-65
2023/08/06 07:02:25;;;;;;;;;;;;;;;17.17;100.00;100411.34;10456638;28;19931;-64
2023/08/06 07:07:28;;;;;;;;;;;;;;;17.00;100.00;100426.94;10456516;28;19960;-64
2023/08/06 07:12:30;;;;;;;;;;;;;;;16.91;100.00;100430.38;10438726;28;20375;-63
2023/08/06 07:17:32;;;;;;;;;;;;;;;17.07;100.00;100432.50;10456410;28;20007;-64
2023/08/06 07:22:35;;;;;;;;;;;;;;;17.12;100.00;100429.44;10456586;28;19925;-64
2023/08/06 07:27:37;;;;;;;;;;;;;;;17.27;100.00;100428.03;10455765;28;20399;-64
2023/08/06 07:32:40;;;;;;;;;;;;;;;17.48;100.00;100425.22;10461091;28;20375;-64
2023/08/06 07:37:42;;;;;;;;;;;;;;;17.23;100.00;100431.91;10463973;28;20440;-64
2023/08/06 07:42:44;;;;;;;;;;;;;;;17.30;100.00;100433.06;10492462;22;19931;-67
2023/08/06 07:47:46;;;;;;;;;;;;;;;17.48;100.00;100432.31;10505257;28;19924;-67
2023/08/06 07:52:49;;;;;;;;;;;;;;;17.69;100.00;100432.97;10504770;28;20414;-67
2023/08/06 07:57:51;;;;;;;;;;;;;;;18.65;100.00;100429.25;10504478;28;19924;-68
2023/08/06 08:02:53;;;;;;;;;;;;;;;19.11;100.00;100425.59;10504443;28;20011;-68
2023/08/06 08:07:55;;;;;;;;;;;;;;;18.82;100.00;100428.41;10504118;28;19928;-67
2023/08/06 08:12:58;;;;;;;;;;;;;;;17.81;100.00;100423.06;10502812;28;19935;-67
2023/08/06 08:18:00;;;;;;;;;;;;;;;18.70;100.00;100432.28;10503726;28;20389;-67
2023/08/06 08:23:02;;;;;;;;;;;;;;;18.29;100.00;100432.66;10503515;28;20371;-68
2023/08/06 08:28:05;;;;;;;;;;;;;;;18.28;100.00;100427.50;10503355;28;19924;-67
2023/08/06 08:33:07;;;;;;;;;;;;;;;18.07;100.00;100433.03;10503193;28;20323;-67
2023/08/06 08:38:10;;;;;;;;;;;;;;;18.12;100.00;100434.28;10503208;28;19966;-68
2023/08/06 08:43:12;;;;;;;;;;;;;;;18.35;100.00;100439.19;10501255;28;20371;-67
2023/08/06 08:48:14;;;;;;;;;;;;;;;17.90;100.00;100438.09;10501685;28;19931;-67
2023/08/06 08:53:17;;;;;;;;;;;;;;;18.02;100.00;100449.34;10501278;28;19925;-67
2023/08/06 08:58:19;;;;;;;;;;;;;;;18.10;100.00;100445.97;10502352;28;20397;-67
2023/08/06 09:03:21;;;;;;;;;;;;;;;18.28;100.00;100452.19;10501094;28;19925;-67
2023/08/06 09:08:24;;;;;;;;;;;;;;;17.91;100.00;100452.19;10500654;28;19928;-67
2023/08/06 09:13:27;;;;;;;;;;;;;;;18.53;100.00;100450.66;10500808;28;19932;-67
2023/08/06 09:18:29;;;;;;;;;;;;;;;18.40;100.00;100454.66;10500591;28;19925;-67
2023/08/06 09:23:33;;;;;;;;;;;;;;;18.70;100.00;100446.38;10500543;28;20011;-67
2023/08/06 09:28:39;;;;;;;;;;;;;;;18.30;100.00;100458.16;10499958;28;19939;-67
2023/08/06 09:33:41;;;;;;;;;;;;;;;18.54;100.00;100460.28;10500790;28;19932;-67
2023/08/06 09:38:43;;;;;;;;;;;;;;;16.96;100.00;100488.97;10499868;28;19939;-67
2023/08/06 09:43:46;;;;;;;;;;;;;;;16.36;100.00;100494.22;10500257;28;19929;-67
2023/08/06 09:48:48;;;;;;;;;;;;;;;16.47;100.00;100502.03;10500145;28;20040;-67
2023/08/06 09:53:51;;;;;;;;;;;;;;;16.10;100.00;100510.50;10498708;28;20073;-67
2023/08/06 09:58:53;;;;;;;;;;;;;;;16.37;100.00;100518.84;10498708;28;19928;-67
2023/08/06 10:03:56;;;;;;;;;;;;;;;16.02;100.00;100520.03;10498669;28;19925;-67
2023/08/06 10:08:58;;;;;;;;;;;;;;;16.19;100.00;100523.88;10498180;28;20288;-67
2023/08/06 10:14:08;;;;;;;;;;;;;;;15.84;100.00;100538.28;10499325;28;20415;-67
2023/08/06 10:19:10;;;;;;;;;;;;;;;15.77;100.00;100533.50;10498007;28;20007;-67
2023/08/06 10:24:14;;;;;;;;;;;;;;;15.30;100.00;100540.88;10498947;28;20284;-67
2023/08/06 10:29:36;;;;;;;;;;;;;;;15.32;100.00;100552.13;10497622;28;19925;-67
2023/08/06 10:34:58;;;;;;;;;;;;;;;15.53;100.00;100549.56;10497829;28;19934;-67
2023/08/06 10:40:00;;;;;;;;;;;;;;;15.72;100.00;100562.06;10498780;28;20383;-67
2023/08/06 10:45:16;;;;;;;;;;;;;;;15.46;100.00;100572.09;10497144;28;19924;-67
2023/08/06 10:50:18;;;;;;;;;;;;;;;15.44;100.00;100587.22;10497222;28;19936;-67
2023/08/06 10:55:27;;;;;;;;;;;;;;;15.09;100.00;100590.91;10497404;28;19930;-67
2023/08/06 11:00:29;;;;;;;;;;;;;;;15.18;100.00;100594.59;10498201;28;19947;-67
2023/08/06 11:05:32;;;;;;;;;;;;;;;14.99;100.00;100600.50;10498467;28;20287;-66
2023/08/06 11:10:34;;;;;;;;;;;;;;;15.11;100.00;100596.88;10505471;28;19931;-66
2023/08/06 11:15:36;;;;;;;;;;;;;;;14.91;100.00;100600.28;10506462;28;19931;-67
2023/08/06 11:20:39;;;;;;;;;;;;;;;14.93;100.00;100599.19;10506327;28;19928;-67
2023/08/06 11:25:44;;;;;;;;;;;;;;;14.94;100.00;100592.13;10504775;28;19930;-66
2023/08/06 11:30:47;;;;;;;;;;;;;;;14.93;100.00;100603.63;10506058;28;19924;-66
2023/08/06 11:35:49;;;;;;;;;;;;;;;14.80;100.00;100617.75;10505709;28;19959;-66
2023/08/06 11:40:52;;;;;;;;;;;;;;;14.83;100.00;100621.97;10504180;28;19947;-66
2023/08/06 11:45:55;;;;;;;;;;;;;;;14.96;100.00;100616.56;10503672;28;19924;-66
2023/08/06 11:50:58;;;;;;;;;;;;;;;15.06;100.00;100628.06;10504866;28;20282;-66
2023/08/06 11:56:01;;;;;;;;;;;;;;;15.19;100.00;100643.75;10504647;28;20295;-66
2023/08/06 12:01:03;;;;;;;;;;;;;;;15.10;100.00;100655.03;10504458;28;19975;-67
2023/08/06 12:06:05;;;;;;;;;;;;;;;15.38;100.00;100656.31;10504511;28;19924;-66
2023/08/06 12:11:08;;;;;;;;;;;;;;;14.94;100.00;100665.94;10504177;28;19924;-67
2023/08/06 12:16:11;;;;;;;;;;;;;;;15.31;100.00;100668.31;10502414;28;19951;-67
2023/08/06 12:21:13;;;;;;;;;;;;;;;15.04;100.00;100672.16;10504020;28;19924;-67
2023/08/06 12:26:15;;;;;;;;;;;;;;;15.06;100.00;100686.06;10503442;28;20282;-67
2023/08/06 12:31:17;;;;;;;;;;;;;;;14.97;100.00;100678.88;10503643;28;19924;-67
2023/08/06 12:36:20;;;;;;;;;;;;;;;14.99;100.00;100696.25;10503335;28;19925;-67
2023/08/06 12:41:22;;;;;;;;;;;;;;;14.86;100.00;100695.50;10502730;28;19944;-67
2023/08/06 12:46:24;;;;;;;;;;;;;;;14.91;100.00;100698.66;10503056;28;19931;-67
2023/08/06 12:51:26;;;;;;;;;;;;;;;14.97;100.00;100719.25;10502665;28;19931;-67
2023/08/06 12:56:29;;;;;;;;;;;;;;;14.99;100.00;100706.78;10502620;28;19935;-67
2023/08/06 13:01:31;;;;;;;;;;;;;;;14.91;100.00;100718.88;10502241;28;19924;-67
2023/08/06 13:06:36;;;;;;;;;;;;;;;14.72;100.00;100728.19;10501885;28;20463;-67
2023/08/06 13:11:41;;;;;;;;;;;;;;;14.84;100.00;100729.91;10502016;28;19932;-67
2023/08/06 13:16:44;;;;;;;;;;;;;;;14.69;100.00;100736.34;10501628;28;19929;-67
2023/08/06 13:21:46;;;;;;;;;;;;;;;14.62;100.00;100733.31;10500474;28;19925;-67
2023/08/06 13:26:49;;;;;;;;;;;;;;;14.63;100.00;100742.09;10501226;28;19929;-67
2023/08/06 13:31:51;;;;;;;;;;;;;;;14.45;100.00;100733.72;10500455;28;19931;-67
2023/08/06 13:36:53;;;;;;;;;;;;;;;14.75;100.00;100735.88;10500723;28;19963;-67
2023/08/06 13:41:56;;;;;;;;;;;;;;;14.61;100.00;100746.63;10500321;28;19964;-67
2023/08/06 13:46:58;;;;;;;;;;;;;;;14.74;100.00;100747.38;10500464;28;19932;-67
2023/08/06 13:52:00;;;;;;;;;;;;;;;14.84;100.00;100751.00;10500142;28;19935;-65
2023/08/06 13:57:20;;;;;;;;;;;;;;;14.55;100.00;100762.88;10499925;28;20371;-65
2023/08/06 14:02:22;;;;;;;;;;;;;;;14.79;100.00;100757.56;10499688;28;20398;-65
2023/08/06 14:07:24;;;;;;;;;;;;;;;14.97;100.00;100757.97;10499720;28;19924;-66
2023/08/06 14:12:27;;;;;;;;;;;;;;;14.80;100.00;100768.00;10499538;28;19959;-66
2023/08/06 14:17:29;;;;;;;;;;;;;;;14.67;100.00;100780.41;10497984;28;19929;-66
2023/08/06 14:22:31;;;;;;;;;;;;;;;14.89;100.00;100787.53;10499315;28;19930;-66
2023/08/06 14:27:34;;;;;;;;;;;;;;;14.81;100.00;100788.13;10498803;28;19951;-66
2023/08/06 14:32:36;;;;;;;;;;;;;;;14.96;100.00;100791.41;10498916;28;19931;-66
2023/08/06 14:37:40;;;;;;;;;;;;;;;14.94;100.00;100795.94;10498602;28;19924;-66
2023/08/06 14:42:43;;;;;;;;;;;;;;;14.98;100.00;100797.41;10498472;28;19925;-66
2023/08/06 14:47:45;;;;;;;;;;;;;;;15.12;100.00;100796.34;10498472;28;19975;-67
2023/08/06 14:52:47;;;;;;;;;;;;;;;15.30;100.00;100795.88;10498300;28;20003;-66
2023/08/06 14:57:50;;;;;;;;;;;;;;;15.30;100.00;100796.72;10497059;28;19925;-67
2023/08/06 15:02:52;;;;;;;;;;;;;;;15.17;100.00;100812.66;10498166;28;19935;-66
2023/08/06 15:07:54;;;;;;;;;;;;;;;15.18;100.00;100816.13;10498047;28;19924;-66
2023/08/06 15:12:57;;;;;;;;;;;;;;;15.41;100.00;100828.38;10497994;28;19924;-66
2023/08/06 15:17:59;;;;;;;;;;;;;;;15.33;100.00;100830.78;10497820;28;20015;-67
2023/08/06 15:23:01;;;;;;;;;;;;;;;15.29;100.00;100842.50;10497834;28;19932;-66
2023/08/06 15:28:05;;;;;;;;;;;;;;;15.59;100.00;100841.13;10497552;28;19931;-66
2023/08/06 15:33:07;;;;;;;;;;;;;;;15.61;100.00;100841.81;10497527;28;19924;-66
2023/08/06 15:38:09;;;;;;;;;;;;;;;15.39;100.00;100854.03;10497450;28;19928;-66
2023/08/06 15:43:12;;;;;;;;;;;;;;;15.81;100.00;100855.31;10495989;28;19932;-67
2023/08/06 15:48:14;;;;;;;;;;;;;;;15.93;100.00;100855.16;10497130;28;20378;-67
2023/08/06 15:53:16;;;;;;;;;;;;;;;15.71;100.00;100868.34;10500216;28;20011;-66
2023/08/06 15:58:19;;;;;;;;;;;;;;;16.08;100.00;100868.94;10504750;28;20321;-66
2023/08/06 16:03:21;;;;;;;;;;;;;;;15.89;100.00;100889.88;10504474;28;19947;-67
2023/08/06 16:08:23;;;;;;;;;;;;;;;15.88;100.00;100886.38;10504524;28;19925;-67
2023/08/06 16:13:25;;;;;;;;;;;;;;;15.83;100.00;100901.72;10503050;28;19978;-67
2023/08/06 16:18:28;;;;;;;;;;;;;;;15.45;100.00;100926.63;10503900;28;20380;-66
2023/08/06 16:23:30;;;;;;;;;;;;;;;15.11;100.00;100934.41;10502631;28;20295;-67
2023/08/06 16:28:32;;;;;;;;;;;;;;;15.23;100.00;100935.28;10503420;28;19931;-66
2023/08/06 16:33:34;;;;;;;;;;;;;;;15.18;100.00;100945.34;10503323;28;19924;-67
2023/08/06 16:38:37;;;;;;;;;;;;;;;14.89;100.00;100958.03;10503311;28;19924;-67
2023/08/06 16:43:39;;;;;;;;;;;;;;;15.08;100.00;100968.94;10502621;28;19924;-67
2023/08/06 16:48:42;;;;;;;;;;;;;;;15.23;100.00;100978.34;10502881;28;19925;-67
2023/08/06 16:53:44;;;;;;;;;;;;;;;15.10;100.00;100976.75;10484799;28;20314;-67
2023/08/06 16:58:46;;;;;;;;;;;;;;;14.98;100.00;100989.84;10484815;28;19931;-67
2023/08/06 17:03:51;;;;;;;;;;;;;;;15.16;100.00;100992.09;10501068;28;19925;-67
2023/08/06 17:08:53;;;;;;;;;;;;;;;15.07;100.00;100993.63;10502112;28;20019;-67
2023/08/06 17:13:56;;;;;;;;;;;;;;;14.92;100.00;101005.28;10501838;28;19926;-67
2023/08/06 17:18:58;;;;;;;;;;;;;;;14.91;100.00;101016.75;10501894;28;19926;-67
2023/08/06 17:24:00;;;;;;;;;;;;;;;14.77;100.00;101017.75;10501354;28;20395;-67
2023/08/06 17:29:03;;;;;;;;;;;;;;;14.76;100.00;101024.84;10501301;28;19930;-67
2023/08/06 17:34:05;;;;;;;;;;;;;;;14.79;100.00;101029.03;10500920;28;19964;-67
2023/08/06 17:39:07;;;;;;;;;;;;;;;14.79;100.00;101034.31;10500745;28;19924;-66
2023/08/06 17:44:10;;;;;;;;;;;;;;;14.53;100.00;101036.97;10500598;28;19924;-66
2023/08/06 17:49:12;;;;;;;;;;;;;;;14.52;100.00;101048.44;10500568;28;19925;-66
2023/08/06 17:54:15;;;;;;;;;;;;;;;14.52;100.00;101055.50;10498912;28;19924;-66
2023/08/06 17:59:17;;;;;;;;;;;;;;;14.34;100.00;101063.75;10499960;28;19924;-67
2023/08/06 18:04:19;;;;;;;;;;;;;;;14.53;100.00;101065.13;10498594;28;20279;-66
2023/08/06 18:09:21;;;;;;;;;;;;;;;14.17;100.00;101072.81;10499630;28;19924;-66
2023/08/06 18:14:24;;;;;;;;;;;;;;;13.84;100.00;101082.03;10497980;28;19924;-66
2023/08/06 18:19:28;;;;;;;;;;;;;;;13.91;100.00;101090.34;10498521;28;20374;-67
2023/08/06 18:24:30;;;;;;;;;;;;;;;13.72;100.00;101088.13;10499252;28;19936;-66
2023/08/06 18:29:33;;;;;;;;;;;;;;;13.87;100.00;101086.22;10497685;28;20379;-66
2023/08/06 18:34:35;;;;;;;;;;;;;;;14.07;100.00;101085.75;10498788;28;20314;-66
2023/08/06 18:39:38;;;;;;;;;;;;;;;14.08;100.00;101076.06;10498620;28;20027;-66
2023/08/06 18:44:40;;;;;;;;;;;;;;;14.02;100.00;101068.56;10498358;28;20315;-66
2023/08/06 18:49:42;;;;;;;;;;;;;;;13.87;100.00;101073.06;10498511;28;19931;-66
2023/08/06 18:54:44;;;;;;;;;;;;;;;13.79;100.00;101070.97;10498389;28;20477;-66
2023/08/06 18:59:47;;;;;;;;;;;;;;;13.71;100.00;101083.78;10498462;28;19924;-66
2023/08/06 19:04:50;;;;;;;;;;;;;;;13.89;100.00;101073.84;10498314;28;20386;-65
2023/08/06 19:09:53;;;;;;;;;;;;;;;13.67;100.00;101080.53;10498172;28;19971;-66
2023/08/06 19:14:55;;;;;;;;;;;;;;;13.63;100.00;101079.00;10496816;28;19925;-66
2023/08/06 19:19:57;;;;;;;;;;;;;;;13.73;100.00;101074.00;10497974;28;20391;-66
2023/08/06 19:24:59;;;;;;;;;;;;;;;13.80;100.00;101083.19;10497897;28;19924;-66
2023/08/06 19:30:02;;;;;;;;;;;;;;;13.69;100.00;101094.41;10504956;28;20008;-66
2023/08/06 19:35:04;;;;;;;;;;;;;;;13.44;100.00;101092.53;10505965;28;19925;-66
2023/08/06 19:40:08;;;;;;;;;;;;;;;13.51;100.00;101100.88;10505539;28;19930;-66
2023/08/06 19:45:11;;;;;;;;;;;;;;;13.41;100.00;101103.25;10505147;28;19935;-66
2023/08/06 19:50:13;;;;;;;;;;;;;;;13.46;100.00;101110.84;10504985;28;19932;-66
2023/08/06 19:55:15;;;;;;;;;;;;;;;13.47;100.00;101107.28;10505017;28;20007;-66
2023/08/06 20:00:17;;;;;;;;;;;;;;;13.61;100.00;101116.91;10476014;22;19932;-70
2023/08/06 20:05:20;;;;;;;;;;;;;;;13.17;100.00;101113.53;10463271;28;19932;-69
2023/08/06 20:10:22;;;;;;;;;;;;;;;13.57;100.00;101109.22;10462906;28;19928;-69
2023/08/06 20:15:25;;;;;;;;;;;;;;;13.47;100.00;101109.91;10462533;28;20007;-69
2023/08/06 20:20:27;;;;;;;;;;;;;;;13.33;100.00;101111.66;10462885;28;19925;-70
2023/08/06 20:25:29;;;;;;;;;;;;;;;13.52;100.00;101102.56;10462569;28;19954;-69
2023/08/06 20:30:31;;;;;;;;;;;;;;;13.32;100.00;101106.50;10462191;28;19931;-69
2023/08/06 20:35:36;;;;;;;;;;;;;;;13.30;100.00;101122.31;10444316;28;20467;-69
2023/08/06 20:40:40;;;;;;;;;;;;;;;13.22;100.00;101115.88;10461705;28;19932;-69
2023/08/06 20:45:43;;;;;;;;;;;;;;;13.22;100.00;101115.88;10427965;28;19929;-69
2023/08/06 20:50:45;;;;;;;;;;;;;;;13.36;100.00;101110.59;10461388;28;19925;-69
2023/08/06 20:55:56;;;;;;;;;;;;;;;13.28;100.00;101113.69;10461295;28;20011;-69
2023/08/06 21:00:59;;;;;;;;;;;;;;;13.24;100.00;101116.63;10443303;28;19924;-70
2023/08/06 21:06:02;;;;;;;;;;;;;;;13.24;100.00;101116.63;10460887;28;20295;-69
2023/08/06 21:11:05;;;;;;;;;;;;;;;13.28;100.00;101113.69;10443028;28;20046;-70
2023/08/06 21:16:07;;;;;;;;;;;;;;;13.29;100.00;101101.38;10460502;28;19925;-69
2023/08/06 21:21:09;;;;;;;;;;;;;;;13.31;100.00;101105.59;10460313;28;20395;-69
2023/08/06 21:26:12;;;;;;;;;;;;;;;13.32;100.00;101103.84;10460042;28;20372;-70
2023/08/06 21:31:14;;;;;;;;;;;;;;;13.26;100.00;101102.41;10441999;28;19925;-70
2023/08/06 21:36:17;;;;;;;;;;;;;;;13.30;100.00;101110.97;10441952;28;19968;-69
2023/08/06 21:41:19;;;;;;;;;;;;;;;13.13;100.00;101112.00;10441812;28;19931;-69
2023/08/06 21:46:21;;;;;;;;;;;;;;;13.30;100.00;101126.75;10441452;28;19948;-69
2023/08/06 21:51:24;;;;;;;;;;;;;;;13.19;100.00;101123.00;10458445;28;19964;-69
2023/08/06 21:56:26;;;;;;;;;;;;;;;13.23;100.00;101126.28;10458908;28;19924;-69
2023/08/06 22:01:28;;;;;;;;;;;;;;;13.24;100.00;101116.63;10458735;28;19925;-69
2023/08/06 22:06:31;;;;;;;;;;;;;;;13.17;100.00;101119.63;10458476;28;19931;-69
2023/08/06 22:11:33;;;;;;;;;;;;;;;13.25;100.00;101123.56;10458216;28;19928;-69
2023/08/06 22:16:35;;;;;;;;;;;;;;;13.27;100.00;101126.94;10458246;28;19931;-69
2023/08/06 22:21:37;;;;;;;;;;;;;;;13.32;100.00;101132.78;10457889;28;19956;-69
2023/08/06 22:26:40;;;;;;;;;;;;;;;13.38;100.00;101141.13;10457621;28;19932;-69
2023/08/06 22:31:42;;;;;;;;;;;;;;;13.22;100.00;101140.38;10457623;28;19925;-69
2023/08/06 22:36:44;;;;;;;;;;;;;;;13.23;100.00;101139.44;10457362;28;20371;-70
2023/08/06 22:41:46;;;;;;;;;;;;;;;13.20;100.00;101148.34;10457220;28;20261;-70
2023/08/06 22:46:49;;;;;;;;;;;;;;;13.26;100.00;101144.47;10457252;28;19935;-69
2023/08/06 22:51:51;;;;;;;;;;;;;;;13.27;100.00;101138.28;10457045;28;19929;-70
2023/08/06 22:56:53;;;;;;;;;;;;;;;13.25;100.00;101150.69;10439301;28;19929;-69
2023/08/06 23:01:56;;;;;;;;;;;;;;;13.21;100.00;101149.19;10455902;28;19925;-69
2023/08/06 23:06:58;;;;;;;;;;;;;;;13.09;100.00;101152.59;10456554;28;20035;-69
2023/08/06 23:12:00;;;;;;;;;;;;;;;13.27;100.00;101143.56;10456762;28;19931;-69
2023/08/06 23:17:03;;;;;;;;;;;;;;;13.30;100.00;101150.41;10456429;28;20019;-69
2023/08/06 23:22:05;;;;;;;;;;;;;;;13.28;100.00;101154.91;10456426;28;20028;-69
2023/08/06 23:27:07;;;;;;;;;;;;;;;13.27;100.00;101163.75;10456173;28;20394;-69
2023/08/06 23:32:10;;;;;;;;;;;;;;;13.27;100.00;101163.75;10456477;28;20019;-69
2023/08/06 23:37:13;;;;;;;;;;;;;;;13.33;100.00;101152.84;10456262;28;19925;-69
2023/08/06 23:42:15;;;;;;;;;;;;;;;13.26;100.00;101152.38;10438402;28;19925;-70
2023/08/06 23:47:17;;;;;;;;;;;;;;;13.28;100.00;101147.00;10456099;28;20027;-69
2023/08/06 23:52:19;;;;;;;;;;;;;;;13.25;100.00;101155.13;10455966;28;19925;-69
2023/08/06 23:57:22;;;;;;;;;;;;;;;13.25;100.00;101149.88;10455576;28;20291;-69
